sensor_id;sensor_type;location;lat;lon;timestamp;P1;durP1;ratioP1;P2;durP2;ratioP2
9128;SDS011;4599;50.906;6.786;2022-11-04T00:01:50;2.60;;;0.90;;
9128;SDS011;4599;50.906;6.786;2022-11-04T00:05:52;2.30;;;0.80;;
9128;SDS011;4599;50.906;6.786;2022-11-04T00:09:54;1.47;;;0.80;;
9128;SDS011;4599;50.906;6.786;2022-11-04T00:13:56;3.03;;;0.70;;
9128;SDS011;4599;50.906;6.786;2022-11-04T00:17:57;3.03;;;1.00;;
9128;SDS011;4599;50.906;6.786;2022-11-04T00:21:59;0.87;;;0.87;;
9128;SDS011;4599;50.906;6.786;2022-11-04T00:26:02;3.10;;;0.90;;
9128;SDS011;4599;50.906;6.786;2022-11-04T00:30:04;0.83;;;0.80;;
9128;SDS011;4599;50.906;6.786;2022-11-04T00:34:08;1.10;;;1.00;;
9128;SDS011;4599;50.906;6.786;2022-11-04T00:38:10;3.53;;;1.10;;
9128;SDS011;4599;50.906;6.786;2022-11-04T00:42:13;2.43;;;1.10;;
9128;SDS011;4599;50.906;6.786;2022-11-04T00:46:14;2.07;;;1.07;;
9128;SDS011;4599;50.906;6.786;2022-11-04T00:50:16;2.67;;;1.20;;
9128;SDS011;4599;50.906;6.786;2022-11-04T00:54:17;2.40;;;1.33;;
9128;SDS011;4599;50.906;6.786;2022-11-04T00:58:20;1.77;;;1.10;;
9128;SDS011;4599;50.906;6.786;2022-11-04T01:02:22;2.80;;;1.10;;
9128;SDS011;4599;50.906;6.786;2022-11-04T01:06:24;3.53;;;0.97;;
9128;SDS011;4599;50.906;6.786;2022-11-04T01:10:26;2.40;;;1.30;;
9128;SDS011;4599;50.906;6.786;2022-11-04T01:14:29;3.57;;;1.27;;
9128;SDS011;4599;50.906;6.786;2022-11-04T01:18:31;3.53;;;1.23;;
9128;SDS011;4599;50.906;6.786;2022-11-04T01:22:33;5.00;;;1.10;;
9128;SDS011;4599;50.906;6.786;2022-11-04T01:26:35;1.37;;;0.90;;
9128;SDS011;4599;50.906;6.786;2022-11-04T01:30:38;2.07;;;0.90;;
9128;SDS011;4599;50.906;6.786;2022-11-04T01:34:40;3.53;;;1.23;;
9128;SDS011;4599;50.906;6.786;2022-11-04T01:38:44;2.23;;;1.00;;
9128;SDS011;4599;50.906;6.786;2022-11-04T01:42:45;4.17;;;0.90;;
9128;SDS011;4599;50.906;6.786;2022-11-04T01:46:49;1.20;;;0.90;;
9128;SDS011;4599;50.906;6.786;2022-11-04T01:50:53;4.13;;;0.90;;
9128;SDS011;4599;50.906;6.786;2022-11-04T01:54:58;1.83;;;0.90;;
9128;SDS011;4599;50.906;6.786;2022-11-04T01:59:10;2.37;;;1.00;;
9128;SDS011;4599;50.906;6.786;2022-11-04T02:03:17;1.83;;;0.80;;
9128;SDS011;4599;50.906;6.786;2022-11-04T02:07:21;1.93;;;0.97;;
9128;SDS011;4599;50.906;6.786;2022-11-04T02:11:23;2.60;;;1.10;;
9128;SDS011;4599;50.906;6.786;2022-11-04T02:15:28;6.30;;;1.03;;
9128;SDS011;4599;50.906;6.786;2022-11-04T02:19:43;5.07;;;1.17;;
9128;SDS011;4599;50.906;6.786;2022-11-04T02:24:03;2.27;;;1.10;;
9128;SDS011;4599;50.906;6.786;2022-11-04T02:33:02;5.80;;;1.13;;
9128;SDS011;4599;50.906;6.786;2022-11-04T02:37:18;6.23;;;1.10;;
9128;SDS011;4599;50.906;6.786;2022-11-04T02:41:30;3.50;;;1.03;;
9128;SDS011;4599;50.906;6.786;2022-11-04T02:45:41;2.93;;;1.00;;
9128;SDS011;4599;50.906;6.786;2022-11-04T02:49:48;4.70;;;1.23;;
9128;SDS011;4599;50.906;6.786;2022-11-04T02:53:55;5.17;;;1.10;;
9128;SDS011;4599;50.906;6.786;2022-11-04T02:58:05;4.67;;;1.27;;
9128;SDS011;4599;50.906;6.786;2022-11-04T03:02:12;7.17;;;1.53;;
9128;SDS011;4599;50.906;6.786;2022-11-04T03:06:20;2.63;;;0.97;;
9128;SDS011;4599;50.906;6.786;2022-11-04T03:10:25;1.97;;;1.10;;
9128;SDS011;4599;50.906;6.786;2022-11-04T03:14:34;3.10;;;1.30;;
9128;SDS011;4599;50.906;6.786;2022-11-04T03:18:41;3.17;;;0.93;;
9128;SDS011;4599;50.906;6.786;2022-11-04T03:22:51;4.27;;;0.80;;
9128;SDS011;4599;50.906;6.786;2022-11-04T03:26:54;5.43;;;1.10;;
9128;SDS011;4599;50.906;6.786;2022-11-04T03:31:00;5.47;;;1.27;;
9128;SDS011;4599;50.906;6.786;2022-11-04T03:35:04;6.23;;;1.20;;
9128;SDS011;4599;50.906;6.786;2022-11-04T03:39:08;4.73;;;1.40;;
9128;SDS011;4599;50.906;6.786;2022-11-04T03:43:10;5.23;;;0.93;;
9128;SDS011;4599;50.906;6.786;2022-11-04T03:47:16;6.50;;;1.23;;
9128;SDS011;4599;50.906;6.786;2022-11-04T03:51:20;2.00;;;1.23;;
9128;SDS011;4599;50.906;6.786;2022-11-04T03:55:22;5.17;;;1.20;;
9128;SDS011;4599;50.906;6.786;2022-11-04T03:59:40;2.40;;;1.00;;
9128;SDS011;4599;50.906;6.786;2022-11-04T04:03:56;5.13;;;1.20;;
9128;SDS011;4599;50.906;6.786;2022-11-04T04:08:06;3.60;;;1.27;;
9128;SDS011;4599;50.906;6.786;2022-11-04T04:12:16;5.53;;;1.53;;
9128;SDS011;4599;50.906;6.786;2022-11-04T04:16:26;7.53;;;1.43;;
9128;SDS011;4599;50.906;6.786;2022-11-04T04:20:33;4.60;;;1.23;;
9128;SDS011;4599;50.906;6.786;2022-11-04T04:24:37;5.80;;;1.50;;
9128;SDS011;4599;50.906;6.786;2022-11-04T04:28:44;5.23;;;1.27;;
9128;SDS011;4599;50.906;6.786;2022-11-04T04:32:47;7.23;;;1.30;;
9128;SDS011;4599;50.906;6.786;2022-11-04T04:36:54;2.03;;;0.97;;
9128;SDS011;4599;50.906;6.786;2022-11-04T04:41:01;5.63;;;1.17;;
9128;SDS011;4599;50.906;6.786;2022-11-04T04:45:09;5.70;;;1.10;;
9128;SDS011;4599;50.906;6.786;2022-11-04T04:49:19;2.90;;;1.40;;
9128;SDS011;4599;50.906;6.786;2022-11-04T04:53:21;2.97;;;1.20;;
9128;SDS011;4599;50.906;6.786;2022-11-04T04:57:23;3.07;;;1.20;;
9128;SDS011;4599;50.906;6.786;2022-11-04T05:01:26;5.10;;;1.33;;
9128;SDS011;4599;50.906;6.786;2022-11-04T05:05:29;3.93;;;1.13;;
9128;SDS011;4599;50.906;6.786;2022-11-04T05:09:30;3.77;;;1.13;;
9128;SDS011;4599;50.906;6.786;2022-11-04T05:13:32;3.07;;;0.97;;
9128;SDS011;4599;50.906;6.786;2022-11-04T05:17:35;4.07;;;1.57;;
9128;SDS011;4599;50.906;6.786;2022-11-04T05:21:37;6.03;;;1.30;;
9128;SDS011;4599;50.906;6.786;2022-11-04T05:25:39;5.90;;;1.40;;
9128;SDS011;4599;50.906;6.786;2022-11-04T05:29:42;7.37;;;1.30;;
9128;SDS011;4599;50.906;6.786;2022-11-04T05:33:45;7.27;;;1.33;;
9128;SDS011;4599;50.906;6.786;2022-11-04T05:37:46;4.17;;;1.60;;
9128;SDS011;4599;50.906;6.786;2022-11-04T05:41:48;5.03;;;1.50;;
9128;SDS011;4599;50.906;6.786;2022-11-04T05:45:50;8.57;;;1.57;;
9128;SDS011;4599;50.906;6.786;2022-11-04T05:49:53;5.80;;;1.80;;
9128;SDS011;4599;50.906;6.786;2022-11-04T05:53:54;4.67;;;1.27;;
9128;SDS011;4599;50.906;6.786;2022-11-04T05:57:56;2.27;;;1.17;;
9128;SDS011;4599;50.906;6.786;2022-11-04T06:01:58;6.97;;;1.40;;
9128;SDS011;4599;50.906;6.786;2022-11-04T06:06:01;6.07;;;1.50;;
9128;SDS011;4599;50.906;6.786;2022-11-04T06:10:03;2.87;;;1.20;;
9128;SDS011;4599;50.906;6.786;2022-11-04T06:14:05;5.13;;;2.03;;
9128;SDS011;4599;50.906;6.786;2022-11-04T06:18:07;9.53;;;2.33;;
9128;SDS011;4599;50.906;6.786;2022-11-04T06:22:11;5.93;;;2.30;;
9128;SDS011;4599;50.906;6.786;2022-11-04T06:26:14;5.70;;;1.90;;
9128;SDS011;4599;50.906;6.786;2022-11-04T06:30:16;5.27;;;2.07;;
9128;SDS011;4599;50.906;6.786;2022-11-04T06:34:18;8.33;;;2.80;;
9128;SDS011;4599;50.906;6.786;2022-11-04T06:38:21;9.17;;;2.33;;
9128;SDS011;4599;50.906;6.786;2022-11-04T06:42:23;7.97;;;2.07;;
9128;SDS011;4599;50.906;6.786;2022-11-04T06:46:26;6.93;;;2.50;;
9128;SDS011;4599;50.906;6.786;2022-11-04T06:50:29;4.67;;;2.17;;
9128;SDS011;4599;50.906;6.786;2022-11-04T06:54:34;6.57;;;2.27;;
9128;SDS011;4599;50.906;6.786;2022-11-04T06:58:36;11.07;;;2.63;;
9128;SDS011;4599;50.906;6.786;2022-11-04T07:02:38;7.90;;;2.30;;
9128;SDS011;4599;50.906;6.786;2022-11-04T07:06:40;12.23;;;3.17;;
9128;SDS011;4599;50.906;6.786;2022-11-04T07:10:46;13.50;;;3.10;;
9128;SDS011;4599;50.906;6.786;2022-11-04T07:14:47;10.83;;;3.10;;
9128;SDS011;4599;50.906;6.786;2022-11-04T07:18:49;7.77;;;3.20;;
9128;SDS011;4599;50.906;6.786;2022-11-04T07:22:52;8.57;;;3.37;;
9128;SDS011;4599;50.906;6.786;2022-11-04T07:26:56;7.23;;;2.00;;
9128;SDS011;4599;50.906;6.786;2022-11-04T07:30:58;4.53;;;1.90;;
9128;SDS011;4599;50.906;6.786;2022-11-04T07:35:01;4.43;;;1.93;;
9128;SDS011;4599;50.906;6.786;2022-11-04T07:39:03;5.57;;;1.90;;
9128;SDS011;4599;50.906;6.786;2022-11-04T07:43:06;6.67;;;1.93;;
9128;SDS011;4599;50.906;6.786;2022-11-04T07:47:08;11.40;;;3.87;;
9128;SDS011;4599;50.906;6.786;2022-11-04T07:51:10;19.33;;;6.83;;
9128;SDS011;4599;50.906;6.786;2022-11-04T07:55:14;15.33;;;3.03;;
9128;SDS011;4599;50.906;6.786;2022-11-04T07:59:17;11.67;;;3.40;;
9128;SDS011;4599;50.906;6.786;2022-11-04T08:03:19;11.33;;;4.10;;
9128;SDS011;4599;50.906;6.786;2022-11-04T08:07:20;19.13;;;5.37;;
9128;SDS011;4599;50.906;6.786;2022-11-04T08:11:23;16.10;;;5.47;;
9128;SDS011;4599;50.906;6.786;2022-11-04T08:15:26;20.07;;;4.30;;
9128;SDS011;4599;50.906;6.786;2022-11-04T08:19:28;9.27;;;2.67;;
9128;SDS011;4599;50.906;6.786;2022-11-04T08:23:30;7.30;;;2.63;;
9128;SDS011;4599;50.906;6.786;2022-11-04T08:27:33;9.93;;;2.60;;
9128;SDS011;4599;50.906;6.786;2022-11-04T08:31:36;5.43;;;2.37;;
9128;SDS011;4599;50.906;6.786;2022-11-04T08:35:38;7.30;;;2.60;;
9128;SDS011;4599;50.906;6.786;2022-11-04T08:39:41;9.50;;;2.33;;
9128;SDS011;4599;50.906;6.786;2022-11-04T08:43:43;8.00;;;2.97;;
9128;SDS011;4599;50.906;6.786;2022-11-04T08:47:47;7.63;;;2.60;;
9128;SDS011;4599;50.906;6.786;2022-11-04T08:51:49;7.13;;;2.30;;
9128;SDS011;4599;50.906;6.786;2022-11-04T08:55:51;8.77;;;2.60;;
9128;SDS011;4599;50.906;6.786;2022-11-04T08:59:53;10.80;;;3.03;;
9128;SDS011;4599;50.906;6.786;2022-11-04T09:03:56;8.23;;;3.17;;
9128;SDS011;4599;50.906;6.786;2022-11-04T09:07:57;12.97;;;2.97;;
9128;SDS011;4599;50.906;6.786;2022-11-04T09:12:00;10.37;;;2.80;;
9128;SDS011;4599;50.906;6.786;2022-11-04T09:16:02;16.30;;;2.73;;
9128;SDS011;4599;50.906;6.786;2022-11-04T09:20:06;14.57;;;2.87;;
9128;SDS011;4599;50.906;6.786;2022-11-04T09:24:09;9.67;;;3.10;;
9128;SDS011;4599;50.906;6.786;2022-11-04T09:28:11;27.40;;;5.27;;
9128;SDS011;4599;50.906;6.786;2022-11-04T09:32:13;14.77;;;4.87;;
9128;SDS011;4599;50.906;6.786;2022-11-04T09:36:16;11.50;;;4.37;;
9128;SDS011;4599;50.906;6.786;2022-11-04T09:40:19;10.07;;;2.40;;
9128;SDS011;4599;50.906;6.786;2022-11-04T09:44:24;10.77;;;2.77;;
9128;SDS011;4599;50.906;6.786;2022-11-04T09:48:30;11.30;;;2.90;;
9128;SDS011;4599;50.906;6.786;2022-11-04T09:52:38;6.60;;;2.13;;
9128;SDS011;4599;50.906;6.786;2022-11-04T09:56:44;6.63;;;2.40;;
9128;SDS011;4599;50.906;6.786;2022-11-04T10:00:50;6.93;;;2.50;;
9128;SDS011;4599;50.906;6.786;2022-11-04T10:05:02;10.57;;;2.33;;
9128;SDS011;4599;50.906;6.786;2022-11-04T10:09:15;9.80;;;2.43;;
9128;SDS011;4599;50.906;6.786;2022-11-04T10:13:33;7.77;;;2.90;;
9128;SDS011;4599;50.906;6.786;2022-11-04T10:22:15;4.17;;;2.43;;
9128;SDS011;4599;50.906;6.786;2022-11-04T10:26:26;6.70;;;2.63;;
9128;SDS011;4599;50.906;6.786;2022-11-04T10:30:34;6.60;;;2.50;;
9128;SDS011;4599;50.906;6.786;2022-11-04T10:34:37;8.33;;;3.60;;
9128;SDS011;4599;50.906;6.786;2022-11-04T10:38:43;9.13;;;3.23;;
9128;SDS011;4599;50.906;6.786;2022-11-04T10:42:50;8.67;;;3.00;;
9128;SDS011;4599;50.906;6.786;2022-11-04T10:46:54;10.00;;;2.90;;
9128;SDS011;4599;50.906;6.786;2022-11-04T10:51:02;12.77;;;3.53;;
9128;SDS011;4599;50.906;6.786;2022-11-04T10:55:09;8.50;;;2.97;;
9128;SDS011;4599;50.906;6.786;2022-11-04T10:59:21;12.67;;;3.10;;
9128;SDS011;4599;50.906;6.786;2022-11-04T11:03:28;6.00;;;2.90;;
9128;SDS011;4599;50.906;6.786;2022-11-04T11:07:35;9.10;;;2.57;;
9128;SDS011;4599;50.906;6.786;2022-11-04T11:11:39;9.73;;;2.30;;
9128;SDS011;4599;50.906;6.786;2022-11-04T11:15:44;4.53;;;1.80;;
9128;SDS011;4599;50.906;6.786;2022-11-04T11:19:47;6.27;;;1.90;;
9128;SDS011;4599;50.906;6.786;2022-11-04T11:23:50;4.40;;;1.70;;
9128;SDS011;4599;50.906;6.786;2022-11-04T11:27:53;3.83;;;1.30;;
9128;SDS011;4599;50.906;6.786;2022-11-04T11:31:59;3.40;;;1.20;;
9128;SDS011;4599;50.906;6.786;2022-11-04T11:36:01;3.80;;;1.27;;
9128;SDS011;4599;50.906;6.786;2022-11-04T11:40:11;4.17;;;1.27;;
9128;SDS011;4599;50.906;6.786;2022-11-04T11:44:25;4.50;;;1.40;;
9128;SDS011;4599;50.906;6.786;2022-11-04T11:48:32;2.03;;;1.00;;
9128;SDS011;4599;50.906;6.786;2022-11-04T11:52:39;2.43;;;1.47;;
9128;SDS011;4599;50.906;6.786;2022-11-04T11:56:42;1.97;;;1.03;;
9128;SDS011;4599;50.906;6.786;2022-11-04T12:01:09;2.83;;;1.30;;
9128;SDS011;4599;50.906;6.786;2022-11-04T12:05:29;3.80;;;1.60;;
9128;SDS011;4599;50.906;6.786;2022-11-04T12:09:58;11.40;;;1.40;;
9128;SDS011;4599;50.906;6.786;2022-11-04T12:14:20;3.30;;;1.20;;
9128;SDS011;4599;50.906;6.786;2022-11-04T12:18:32;3.40;;;1.30;;
9128;SDS011;4599;50.906;6.786;2022-11-04T12:22:45;4.97;;;1.60;;
9128;SDS011;4599;50.906;6.786;2022-11-04T12:26:56;5.53;;;1.33;;
9128;SDS011;4599;50.906;6.786;2022-11-04T12:31:09;2.60;;;1.10;;
9128;SDS011;4599;50.906;6.786;2022-11-04T12:35:23;1.90;;;1.00;;
9128;SDS011;4599;50.906;6.786;2022-11-04T12:39:37;3.23;;;1.20;;
9128;SDS011;4599;50.906;6.786;2022-11-04T12:43:53;1.67;;;0.90;;
9128;SDS011;4599;50.906;6.786;2022-11-04T12:48:06;2.10;;;1.10;;
9128;SDS011;4599;50.906;6.786;2022-11-04T12:52:15;3.27;;;1.17;;
9128;SDS011;4599;50.906;6.786;2022-11-04T12:56:33;2.70;;;1.00;;
9128;SDS011;4599;50.906;6.786;2022-11-04T13:00:37;3.17;;;1.10;;
9128;SDS011;4599;50.906;6.786;2022-11-04T13:04:43;2.80;;;1.20;;
9128;SDS011;4599;50.906;6.786;2022-11-04T13:08:50;4.13;;;1.40;;
9128;SDS011;4599;50.906;6.786;2022-11-04T13:12:58;4.33;;;1.40;;
9128;SDS011;4599;50.906;6.786;2022-11-04T13:17:04;3.97;;;1.57;;
9128;SDS011;4599;50.906;6.786;2022-11-04T13:21:12;5.20;;;1.50;;
9128;SDS011;4599;50.906;6.786;2022-11-04T13:25:18;4.87;;;1.60;;
9128;SDS011;4599;50.906;6.786;2022-11-04T13:29:26;3.00;;;1.50;;
9128;SDS011;4599;50.906;6.786;2022-11-04T13:33:32;3.93;;;1.50;;
9128;SDS011;4599;50.906;6.786;2022-11-04T13:37:42;6.20;;;1.90;;
9128;SDS011;4599;50.906;6.786;2022-11-04T13:46:26;7.30;;;1.67;;
9128;SDS011;4599;50.906;6.786;2022-11-04T13:50:32;1.67;;;1.17;;
9128;SDS011;4599;50.906;6.786;2022-11-04T13:54:36;5.20;;;1.50;;
9128;SDS011;4599;50.906;6.786;2022-11-04T13:58:41;3.00;;;1.40;;
9128;SDS011;4599;50.906;6.786;2022-11-04T14:02:49;5.03;;;1.20;;
9128;SDS011;4599;50.906;6.786;2022-11-04T14:06:52;4.53;;;1.60;;
9128;SDS011;4599;50.906;6.786;2022-11-04T14:11:03;6.43;;;2.23;;
9128;SDS011;4599;50.906;6.786;2022-11-04T14:15:24;5.20;;;1.80;;
9128;SDS011;4599;50.906;6.786;2022-11-04T14:20:09;6.27;;;2.13;;
9128;SDS011;4599;50.906;6.786;2022-11-04T14:24:23;9.80;;;2.57;;
9128;SDS011;4599;50.906;6.786;2022-11-04T14:28:29;6.80;;;2.00;;
9128;SDS011;4599;50.906;6.786;2022-11-04T14:32:33;5.60;;;1.57;;
9128;SDS011;4599;50.906;6.786;2022-11-04T14:36:41;3.17;;;1.53;;
9128;SDS011;4599;50.906;6.786;2022-11-04T14:40:44;6.33;;;1.73;;
9128;SDS011;4599;50.906;6.786;2022-11-04T14:44:48;5.57;;;1.73;;
9128;SDS011;4599;50.906;6.786;2022-11-04T14:48:51;6.23;;;2.07;;
9128;SDS011;4599;50.906;6.786;2022-11-04T14:52:57;6.73;;;1.97;;
9128;SDS011;4599;50.906;6.786;2022-11-04T14:57:11;9.67;;;2.37;;
9128;SDS011;4599;50.906;6.786;2022-11-04T15:01:16;11.27;;;2.03;;
9128;SDS011;4599;50.906;6.786;2022-11-04T15:05:21;5.03;;;1.97;;
9128;SDS011;4599;50.906;6.786;2022-11-04T15:09:27;7.77;;;2.00;;
9128;SDS011;4599;50.906;6.786;2022-11-04T15:13:34;5.10;;;2.27;;
9128;SDS011;4599;50.906;6.786;2022-11-04T15:17:37;8.57;;;2.50;;
9128;SDS011;4599;50.906;6.786;2022-11-04T15:21:39;5.87;;;2.40;;
9128;SDS011;4599;50.906;6.786;2022-11-04T15:25:46;11.03;;;3.10;;
9128;SDS011;4599;50.906;6.786;2022-11-04T15:29:52;10.70;;;2.77;;
9128;SDS011;4599;50.906;6.786;2022-11-04T15:33:55;8.27;;;2.17;;
9128;SDS011;4599;50.906;6.786;2022-11-04T15:38:00;3.93;;;1.97;;
9128;SDS011;4599;50.906;6.786;2022-11-04T15:42:05;9.07;;;2.60;;
9128;SDS011;4599;50.906;6.786;2022-11-04T15:46:17;5.57;;;2.27;;
9128;SDS011;4599;50.906;6.786;2022-11-04T15:50:21;8.33;;;2.40;;
9128;SDS011;4599;50.906;6.786;2022-11-04T15:54:24;6.60;;;2.07;;
9128;SDS011;4599;50.906;6.786;2022-11-04T15:58:30;5.10;;;2.23;;
9128;SDS011;4599;50.906;6.786;2022-11-04T16:02:32;5.67;;;2.47;;
9128;SDS011;4599;50.906;6.786;2022-11-04T16:06:39;8.03;;;2.40;;
9128;SDS011;4599;50.906;6.786;2022-11-04T16:10:42;8.33;;;2.10;;
9128;SDS011;4599;50.906;6.786;2022-11-04T16:14:49;7.73;;;2.37;;
9128;SDS011;4599;50.906;6.786;2022-11-04T16:18:52;5.90;;;2.30;;
9128;SDS011;4599;50.906;6.786;2022-11-04T16:22:57;9.53;;;2.10;;
9128;SDS011;4599;50.906;6.786;2022-11-04T16:27:01;8.83;;;2.60;;
9128;SDS011;4599;50.906;6.786;2022-11-04T16:31:05;9.73;;;2.43;;
9128;SDS011;4599;50.906;6.786;2022-11-04T16:35:13;7.97;;;2.33;;
9128;SDS011;4599;50.906;6.786;2022-11-04T16:39:17;4.57;;;2.00;;
9128;SDS011;4599;50.906;6.786;2022-11-04T16:43:20;8.70;;;2.57;;
9128;SDS011;4599;50.906;6.786;2022-11-04T16:47:24;9.03;;;2.60;;
9128;SDS011;4599;50.906;6.786;2022-11-04T16:51:27;7.60;;;2.30;;
9128;SDS011;4599;50.906;6.786;2022-11-04T16:55:28;10.10;;;2.90;;
9128;SDS011;4599;50.906;6.786;2022-11-04T16:59:30;7.20;;;2.50;;
9128;SDS011;4599;50.906;6.786;2022-11-04T17:03:33;8.23;;;2.47;;
9128;SDS011;4599;50.906;6.786;2022-11-04T17:07:53;8.20;;;2.50;;
9128;SDS011;4599;50.906;6.786;2022-11-04T17:11:59;13.03;;;2.77;;
9128;SDS011;4599;50.906;6.786;2022-11-04T17:16:00;7.67;;;3.30;;
9128;SDS011;4599;50.906;6.786;2022-11-04T17:20:04;13.77;;;3.60;;
9128;SDS011;4599;50.906;6.786;2022-11-04T17:24:07;9.20;;;3.20;;
9128;SDS011;4599;50.906;6.786;2022-11-04T17:28:09;10.23;;;3.50;;
9128;SDS011;4599;50.906;6.786;2022-11-04T17:32:11;9.37;;;3.70;;
9128;SDS011;4599;50.906;6.786;2022-11-04T17:36:15;11.20;;;3.90;;
9128;SDS011;4599;50.906;6.786;2022-11-04T17:40:19;7.23;;;3.63;;
9128;SDS011;4599;50.906;6.786;2022-11-04T17:44:22;8.03;;;3.40;;
9128;SDS011;4599;50.906;6.786;2022-11-04T17:48:24;11.10;;;3.60;;
9128;SDS011;4599;50.906;6.786;2022-11-04T17:52:27;12.63;;;3.33;;
9128;SDS011;4599;50.906;6.786;2022-11-04T17:56:29;8.93;;;3.20;;
9128;SDS011;4599;50.906;6.786;2022-11-04T18:00:31;11.03;;;3.23;;
9128;SDS011;4599;50.906;6.786;2022-11-04T18:04:33;10.23;;;3.83;;
9128;SDS011;4599;50.906;6.786;2022-11-04T18:08:36;13.57;;;3.67;;
9128;SDS011;4599;50.906;6.786;2022-11-04T18:12:38;7.87;;;3.90;;
9128;SDS011;4599;50.906;6.786;2022-11-04T18:16:40;9.87;;;4.03;;
9128;SDS011;4599;50.906;6.786;2022-11-04T18:20:43;8.50;;;3.70;;
9128;SDS011;4599;50.906;6.786;2022-11-04T18:24:46;14.70;;;4.97;;
9128;SDS011;4599;50.906;6.786;2022-11-04T18:28:47;13.97;;;5.10;;
9128;SDS011;4599;50.906;6.786;2022-11-04T18:32:50;11.90;;;5.00;;
9128;SDS011;4599;50.906;6.786;2022-11-04T18:36:52;12.00;;;5.20;;
9128;SDS011;4599;50.906;6.786;2022-11-04T18:40:55;10.73;;;5.97;;
9128;SDS011;4599;50.906;6.786;2022-11-04T18:44:56;13.50;;;5.70;;
9128;SDS011;4599;50.906;6.786;2022-11-04T18:48:58;10.03;;;5.77;;
9128;SDS011;4599;50.906;6.786;2022-11-04T18:53:00;10.23;;;5.30;;
9128;SDS011;4599;50.906;6.786;2022-11-04T18:57:03;12.33;;;5.90;;
9128;SDS011;4599;50.906;6.786;2022-11-04T19:01:06;10.47;;;5.50;;
9128;SDS011;4599;50.906;6.786;2022-11-04T19:05:09;17.17;;;8.53;;
9128;SDS011;4599;50.906;6.786;2022-11-04T19:09:12;13.80;;;8.07;;
9128;SDS011;4599;50.906;6.786;2022-11-04T19:13:37;16.73;;;10.27;;
9128;SDS011;4599;50.906;6.786;2022-11-04T19:17:38;15.70;;;9.43;;
9128;SDS011;4599;50.906;6.786;2022-11-04T19:21:40;19.13;;;11.60;;
9128;SDS011;4599;50.906;6.786;2022-11-04T19:25:42;19.50;;;10.93;;
9128;SDS011;4599;50.906;6.786;2022-11-04T19:29:45;17.53;;;10.87;;
9128;SDS011;4599;50.906;6.786;2022-11-04T19:33:47;16.47;;;10.10;;
9128;SDS011;4599;50.906;6.786;2022-11-04T19:37:49;15.60;;;10.87;;
9128;SDS011;4599;50.906;6.786;2022-11-04T19:41:51;24.63;;;12.27;;
9128;SDS011;4599;50.906;6.786;2022-11-04T19:45:57;21.27;;;13.43;;
9128;SDS011;4599;50.906;6.786;2022-11-04T19:50:05;23.73;;;14.93;;
9128;SDS011;4599;50.906;6.786;2022-11-04T19:54:07;22.37;;;13.90;;
9128;SDS011;4599;50.906;6.786;2022-11-04T19:58:10;23.33;;;15.27;;
9128;SDS011;4599;50.906;6.786;2022-11-04T20:02:14;16.10;;;12.93;;
9128;SDS011;4599;50.906;6.786;2022-11-04T20:06:16;18.63;;;13.57;;
9128;SDS011;4599;50.906;6.786;2022-11-04T20:10:19;23.83;;;14.90;;
9128;SDS011;4599;50.906;6.786;2022-11-04T20:14:21;25.70;;;15.20;;
9128;SDS011;4599;50.906;6.786;2022-11-04T20:18:25;21.23;;;15.93;;
9128;SDS011;4599;50.906;6.786;2022-11-04T20:22:26;21.83;;;15.60;;
9128;SDS011;4599;50.906;6.786;2022-11-04T20:26:28;21.73;;;15.70;;
9128;SDS011;4599;50.906;6.786;2022-11-04T20:30:34;23.87;;;16.30;;
9128;SDS011;4599;50.906;6.786;2022-11-04T20:34:38;22.17;;;16.40;;
9128;SDS011;4599;50.906;6.786;2022-11-04T20:38:39;22.13;;;15.97;;
9128;SDS011;4599;50.906;6.786;2022-11-04T20:42:41;25.37;;;16.10;;
9128;SDS011;4599;50.906;6.786;2022-11-04T20:46:43;25.23;;;16.00;;
9128;SDS011;4599;50.906;6.786;2022-11-04T20:50:46;18.87;;;15.20;;
9128;SDS011;4599;50.906;6.786;2022-11-04T20:54:49;23.27;;;14.43;;
9128;SDS011;4599;50.906;6.786;2022-11-04T20:58:52;22.87;;;14.00;;
9128;SDS011;4599;50.906;6.786;2022-11-04T21:02:59;17.47;;;13.37;;
9128;SDS011;4599;50.906;6.786;2022-11-04T21:07:02;16.93;;;12.57;;
9128;SDS011;4599;50.906;6.786;2022-11-04T21:11:04;22.70;;;15.07;;
9128;SDS011;4599;50.906;6.786;2022-11-04T21:15:07;26.37;;;17.63;;
9128;SDS011;4599;50.906;6.786;2022-11-04T21:19:09;31.40;;;18.10;;
9128;SDS011;4599;50.906;6.786;2022-11-04T21:23:13;27.70;;;19.60;;
9128;SDS011;4599;50.906;6.786;2022-11-04T21:27:16;23.27;;;18.37;;
9128;SDS011;4599;50.906;6.786;2022-11-04T21:31:18;32.47;;;21.07;;
9128;SDS011;4599;50.906;6.786;2022-11-04T21:35:19;28.23;;;20.00;;
9128;SDS011;4599;50.906;6.786;2022-11-04T21:39:22;30.33;;;20.17;;
9128;SDS011;4599;50.906;6.786;2022-11-04T21:43:24;25.30;;;19.77;;
9128;SDS011;4599;50.906;6.786;2022-11-04T21:47:26;28.90;;;19.47;;
9128;SDS011;4599;50.906;6.786;2022-11-04T21:51:28;24.87;;;18.10;;
9128;SDS011;4599;50.906;6.786;2022-11-04T21:55:33;30.20;;;19.17;;
9128;SDS011;4599;50.906;6.786;2022-11-04T21:59:37;24.67;;;17.43;;
9128;SDS011;4599;50.906;6.786;2022-11-04T22:03:39;21.40;;;17.07;;
9128;SDS011;4599;50.906;6.786;2022-11-04T22:07:41;22.23;;;15.83;;
9128;SDS011;4599;50.906;6.786;2022-11-04T22:11:44;18.83;;;14.07;;
9128;SDS011;4599;50.906;6.786;2022-11-04T22:15:46;17.93;;;11.73;;
9128;SDS011;4599;50.906;6.786;2022-11-04T22:19:47;12.40;;;9.07;;
9128;SDS011;4599;50.906;6.786;2022-11-04T22:23:50;12.87;;;9.00;;
9128;SDS011;4599;50.906;6.786;2022-11-04T22:27:53;12.57;;;8.50;;
9128;SDS011;4599;50.906;6.786;2022-11-04T22:31:54;11.83;;;8.50;;
9128;SDS011;4599;50.906;6.786;2022-11-04T22:35:56;11.67;;;9.33;;
9128;SDS011;4599;50.906;6.786;2022-11-04T22:39:58;17.97;;;10.40;;
9128;SDS011;4599;50.906;6.786;2022-11-04T22:44:01;13.10;;;10.63;;
9128;SDS011;4599;50.906;6.786;2022-11-04T22:48:03;19.87;;;13.20;;
9128;SDS011;4599;50.906;6.786;2022-11-04T22:52:06;16.63;;;13.80;;
9128;SDS011;4599;50.906;6.786;2022-11-04T22:56:09;19.73;;;14.97;;
9128;SDS011;4599;50.906;6.786;2022-11-04T23:00:13;21.37;;;15.60;;
9128;SDS011;4599;50.906;6.786;2022-11-04T23:04:16;22.17;;;15.50;;
9128;SDS011;4599;50.906;6.786;2022-11-04T23:08:18;19.73;;;14.67;;
9128;SDS011;4599;50.906;6.786;2022-11-04T23:12:19;18.37;;;13.90;;
9128;SDS011;4599;50.906;6.786;2022-11-04T23:16:22;18.70;;;13.97;;
9128;SDS011;4599;50.906;6.786;2022-11-04T23:20:25;20.00;;;13.47;;
9128;SDS011;4599;50.906;6.786;2022-11-04T23:24:27;21.43;;;12.27;;
9128;SDS011;4599;50.906;6.786;2022-11-04T23:28:29;16.00;;;11.67;;
9128;SDS011;4599;50.906;6.786;2022-11-04T23:32:32;16.10;;;11.83;;
9128;SDS011;4599;50.906;6.786;2022-11-04T23:36:34;14.67;;;10.30;;
9128;SDS011;4599;50.906;6.786;2022-11-04T23:40:36;17.17;;;11.00;;
9128;SDS011;4599;50.906;6.786;2022-11-04T23:44:38;18.33;;;11.00;;
9128;SDS011;4599;50.906;6.786;2022-11-04T23:48:41;14.37;;;10.00;;
9128;SDS011;4599;50.906;6.786;2022-11-04T23:52:43;14.23;;;10.47;;
9128;SDS011;4599;50.906;6.786;2022-11-04T23:56:45;12.50;;;9.47;;
